sensor_id;sensor_type;location;lat;lon;timestamp;P1;durP1;ratioP1;P2;durP2;ratioP2
10582;SDS011;33679;51.218;6.786;2022-08-19T00:01:17;6.70;;;3.80;;
10582;SDS011;33679;51.218;6.786;2022-08-19T00:03:44;4.80;;;3.60;;
10582;SDS011;33679;51.218;6.786;2022-08-19T00:06:11;4.43;;;3.50;;
10582;SDS011;33679;51.218;6.786;2022-08-19T00:08:39;4.30;;;3.10;;
10582;SDS011;33679;51.218;6.786;2022-08-19T00:11:06;4.80;;;3.70;;
10582;SDS011;33679;51.218;6.786;2022-08-19T00:13:34;6.40;;;3.27;;
10582;SDS011;33679;51.218;6.786;2022-08-19T00:16:03;5.57;;;3.30;;
10582;SDS011;33679;51.218;6.786;2022-08-19T00:18:31;5.17;;;4.20;;
10582;SDS011;33679;51.218;6.786;2022-08-19T00:20:58;6.03;;;3.80;;
10582;SDS011;33679;51.218;6.786;2022-08-19T00:23:25;4.60;;;3.07;;
10582;SDS011;33679;51.218;6.786;2022-08-19T00:25:55;4.23;;;3.30;;
10582;SDS011;33679;51.218;6.786;2022-08-19T00:28:22;3.87;;;3.20;;
10582;SDS011;33679;51.218;6.786;2022-08-19T00:30:49;4.80;;;3.33;;
10582;SDS011;33679;51.218;6.786;2022-08-19T00:33:19;3.93;;;3.53;;
10582;SDS011;33679;51.218;6.786;2022-08-19T00:35:47;4.50;;;3.67;;
10582;SDS011;33679;51.218;6.786;2022-08-19T00:38:14;3.33;;;2.97;;
10582;SDS011;33679;51.218;6.786;2022-08-19T00:40:42;5.47;;;3.37;;
10582;SDS011;33679;51.218;6.786;2022-08-19T00:43:11;4.83;;;3.60;;
10582;SDS011;33679;51.218;6.786;2022-08-19T00:45:39;4.40;;;3.60;;
10582;SDS011;33679;51.218;6.786;2022-08-19T00:48:08;4.43;;;3.73;;
10582;SDS011;33679;51.218;6.786;2022-08-19T00:50:42;6.30;;;3.57;;
10582;SDS011;33679;51.218;6.786;2022-08-19T00:53:11;4.40;;;3.70;;
10582;SDS011;33679;51.218;6.786;2022-08-19T00:55:43;6.40;;;4.37;;
10582;SDS011;33679;51.218;6.786;2022-08-19T00:58:13;5.10;;;4.13;;
10582;SDS011;33679;51.218;6.786;2022-08-19T01:04:30;7.43;;;4.87;;
10582;SDS011;33679;51.218;6.786;2022-08-19T01:07:01;7.37;;;4.37;;
10582;SDS011;33679;51.218;6.786;2022-08-19T01:09:29;5.87;;;4.47;;
10582;SDS011;33679;51.218;6.786;2022-08-19T01:12:04;6.70;;;4.80;;
10582;SDS011;33679;51.218;6.786;2022-08-19T01:14:33;5.13;;;3.87;;
10582;SDS011;33679;51.218;6.786;2022-08-19T01:17:01;8.00;;;5.40;;
10582;SDS011;33679;51.218;6.786;2022-08-19T01:19:29;5.77;;;4.73;;
10582;SDS011;33679;51.218;6.786;2022-08-19T01:22:03;9.37;;;5.30;;
10582;SDS011;33679;51.218;6.786;2022-08-19T01:24:38;6.60;;;4.63;;
10582;SDS011;33679;51.218;6.786;2022-08-19T01:27:06;9.00;;;5.20;;
10582;SDS011;33679;51.218;6.786;2022-08-19T01:29:34;9.37;;;5.73;;
10582;SDS011;33679;51.218;6.786;2022-08-19T01:32:16;7.90;;;5.53;;
10582;SDS011;33679;51.218;6.786;2022-08-19T01:34:44;8.13;;;5.20;;
10582;SDS011;33679;51.218;6.786;2022-08-19T01:37:13;8.20;;;6.00;;
10582;SDS011;33679;51.218;6.786;2022-08-19T01:43:05;8.70;;;5.17;;
10582;SDS011;33679;51.218;6.786;2022-08-19T01:46:12;6.80;;;5.33;;
10582;SDS011;33679;51.218;6.786;2022-08-19T01:49:18;6.13;;;4.87;;
10582;SDS011;33679;51.218;6.786;2022-08-19T01:52:14;13.20;;;5.70;;
10582;SDS011;33679;51.218;6.786;2022-08-19T01:59:19;7.67;;;4.67;;
10582;SDS011;33679;51.218;6.786;2022-08-19T02:08:58;6.97;;;4.70;;
10582;SDS011;33679;51.218;6.786;2022-08-19T02:12:00;6.10;;;4.57;;
10582;SDS011;33679;51.218;6.786;2022-08-19T02:14:55;5.33;;;4.47;;
10582;SDS011;33679;51.218;6.786;2022-08-19T02:17:34;7.97;;;4.97;;
10582;SDS011;33679;51.218;6.786;2022-08-19T02:20:12;5.90;;;4.83;;
10582;SDS011;33679;51.218;6.786;2022-08-19T02:44:36;9.20;;;6.13;;
10582;SDS011;33679;51.218;6.786;2022-08-19T02:47:30;11.90;;;8.17;;
10582;SDS011;33679;51.218;6.786;2022-08-19T02:57:44;11.00;;;7.60;;
10582;SDS011;33679;51.218;6.786;2022-08-19T03:00:55;15.07;;;9.70;;
10582;SDS011;33679;51.218;6.786;2022-08-19T03:03:38;11.30;;;9.43;;
10582;SDS011;33679;51.218;6.786;2022-08-19T03:06:14;15.83;;;11.07;;
10582;SDS011;33679;51.218;6.786;2022-08-19T03:09:02;15.70;;;9.43;;
10582;SDS011;33679;51.218;6.786;2022-08-19T03:11:54;15.00;;;9.03;;
10582;SDS011;33679;51.218;6.786;2022-08-19T03:14:50;15.03;;;10.40;;
10582;SDS011;33679;51.218;6.786;2022-08-19T03:17:37;15.00;;;9.03;;
10582;SDS011;33679;51.218;6.786;2022-08-19T03:20:53;17.13;;;11.40;;
10582;SDS011;33679;51.218;6.786;2022-08-19T03:24:38;16.77;;;10.53;;
10582;SDS011;33679;51.218;6.786;2022-08-19T03:27:18;17.50;;;11.50;;
10582;SDS011;33679;51.218;6.786;2022-08-19T03:30:24;14.10;;;10.20;;
10582;SDS011;33679;51.218;6.786;2022-08-19T03:32:56;18.27;;;11.83;;
10582;SDS011;33679;51.218;6.786;2022-08-19T03:35:51;17.47;;;11.13;;
10582;SDS011;33679;51.218;6.786;2022-08-19T03:42:15;15.37;;;10.73;;
10582;SDS011;33679;51.218;6.786;2022-08-19T03:48:10;19.13;;;12.87;;
10582;SDS011;33679;51.218;6.786;2022-08-19T03:51:42;18.77;;;11.43;;
10582;SDS011;33679;51.218;6.786;2022-08-19T03:54:19;18.10;;;11.80;;
10582;SDS011;33679;51.218;6.786;2022-08-19T03:56:57;19.67;;;12.20;;
10582;SDS011;33679;51.218;6.786;2022-08-19T03:59:30;19.60;;;12.17;;
10582;SDS011;33679;51.218;6.786;2022-08-19T04:02:26;17.50;;;11.57;;
10582;SDS011;33679;51.218;6.786;2022-08-19T04:07:49;17.53;;;10.50;;
10582;SDS011;33679;51.218;6.786;2022-08-19T04:10:42;26.63;;;12.90;;
10582;SDS011;33679;51.218;6.786;2022-08-19T04:13:39;17.90;;;11.90;;
10582;SDS011;33679;51.218;6.786;2022-08-19T04:16:42;19.83;;;13.70;;
10582;SDS011;33679;51.218;6.786;2022-08-19T04:19:20;17.20;;;10.30;;
10582;SDS011;33679;51.218;6.786;2022-08-19T04:21:54;20.57;;;14.80;;
10582;SDS011;33679;51.218;6.786;2022-08-19T04:27:34;21.60;;;13.30;;
10582;SDS011;33679;51.218;6.786;2022-08-19T04:30:21;19.80;;;12.90;;
10582;SDS011;33679;51.218;6.786;2022-08-19T04:33:12;26.10;;;14.50;;
10582;SDS011;33679;51.218;6.786;2022-08-19T04:35:41;21.77;;;13.77;;
10582;SDS011;33679;51.218;6.786;2022-08-19T04:38:26;18.60;;;12.00;;
10582;SDS011;33679;51.218;6.786;2022-08-19T04:41:08;23.93;;;13.37;;
10582;SDS011;33679;51.218;6.786;2022-08-19T04:44:05;21.20;;;11.63;;
10582;SDS011;33679;51.218;6.786;2022-08-19T04:46:42;21.33;;;13.33;;
10582;SDS011;33679;51.218;6.786;2022-08-19T04:49:17;23.07;;;13.63;;
10582;SDS011;33679;51.218;6.786;2022-08-19T04:52:05;21.50;;;12.90;;
10582;SDS011;33679;51.218;6.786;2022-08-19T04:55:13;17.60;;;12.47;;
10582;SDS011;33679;51.218;6.786;2022-08-19T04:57:52;22.30;;;14.90;;
10582;SDS011;33679;51.218;6.786;2022-08-19T05:00:33;23.43;;;13.47;;
10582;SDS011;33679;51.218;6.786;2022-08-19T05:06:43;23.93;;;15.37;;
10582;SDS011;33679;51.218;6.786;2022-08-19T05:09:56;28.20;;;16.73;;
10582;SDS011;33679;51.218;6.786;2022-08-19T05:12:54;25.57;;;15.33;;
10582;SDS011;33679;51.218;6.786;2022-08-19T05:15:42;27.53;;;16.30;;
10582;SDS011;33679;51.218;6.786;2022-08-19T05:18:18;26.57;;;16.77;;
10582;SDS011;33679;51.218;6.786;2022-08-19T05:24:23;26.20;;;16.00;;
10582;SDS011;33679;51.218;6.786;2022-08-19T05:27:01;26.10;;;15.07;;
10582;SDS011;33679;51.218;6.786;2022-08-19T05:34:23;21.67;;;14.13;;
10582;SDS011;33679;51.218;6.786;2022-08-19T05:51:23;27.00;;;14.20;;
10582;SDS011;33679;51.218;6.786;2022-08-19T05:53:51;28.97;;;18.37;;
10582;SDS011;33679;51.218;6.786;2022-08-19T05:56:18;27.80;;;15.87;;
10582;SDS011;33679;51.218;6.786;2022-08-19T05:58:45;25.23;;;16.83;;
10582;SDS011;33679;51.218;6.786;2022-08-19T06:01:15;26.93;;;16.73;;
10582;SDS011;33679;51.218;6.786;2022-08-19T06:03:43;28.80;;;17.70;;
10582;SDS011;33679;51.218;6.786;2022-08-19T06:06:12;25.33;;;17.30;;
10582;SDS011;33679;51.218;6.786;2022-08-19T06:08:43;26.07;;;15.80;;
10582;SDS011;33679;51.218;6.786;2022-08-19T06:11:17;26.00;;;17.20;;
10582;SDS011;33679;51.218;6.786;2022-08-19T06:13:50;28.47;;;18.43;;
10582;SDS011;33679;51.218;6.786;2022-08-19T06:16:19;32.63;;;19.00;;
10582;SDS011;33679;51.218;6.786;2022-08-19T06:18:48;19.37;;;12.90;;
10582;SDS011;33679;51.218;6.786;2022-08-19T06:21:18;28.03;;;17.17;;
10582;SDS011;33679;51.218;6.786;2022-08-19T06:23:50;26.10;;;15.77;;
10582;SDS011;33679;51.218;6.786;2022-08-19T06:26:18;32.57;;;18.77;;
10582;SDS011;33679;51.218;6.786;2022-08-19T06:28:47;34.53;;;18.60;;
10582;SDS011;33679;51.218;6.786;2022-08-19T06:31:15;28.70;;;17.53;;
10582;SDS011;33679;51.218;6.786;2022-08-19T06:33:45;31.10;;;17.40;;
10582;SDS011;33679;51.218;6.786;2022-08-19T06:36:17;26.93;;;16.93;;
10582;SDS011;33679;51.218;6.786;2022-08-19T06:38:46;28.50;;;17.27;;
10582;SDS011;33679;51.218;6.786;2022-08-19T06:41:24;24.10;;;14.70;;
10582;SDS011;33679;51.218;6.786;2022-08-19T06:43:51;26.10;;;15.53;;
10582;SDS011;33679;51.218;6.786;2022-08-19T06:46:19;25.77;;;15.20;;
10582;SDS011;33679;51.218;6.786;2022-08-19T06:48:47;31.20;;;15.90;;
10582;SDS011;33679;51.218;6.786;2022-08-19T06:51:18;24.47;;;14.47;;
10582;SDS011;33679;51.218;6.786;2022-08-19T06:53:46;22.47;;;13.20;;
10582;SDS011;33679;51.218;6.786;2022-08-19T06:56:15;27.40;;;16.40;;
10582;SDS011;33679;51.218;6.786;2022-08-19T06:58:46;31.27;;;15.53;;
10582;SDS011;33679;51.218;6.786;2022-08-19T07:01:16;30.17;;;16.60;;
10582;SDS011;33679;51.218;6.786;2022-08-19T07:03:44;24.17;;;14.70;;
10582;SDS011;33679;51.218;6.786;2022-08-19T07:06:13;24.37;;;14.57;;
10582;SDS011;33679;51.218;6.786;2022-08-19T07:08:43;24.90;;;15.30;;
10582;SDS011;33679;51.218;6.786;2022-08-19T07:11:12;22.80;;;15.03;;
10582;SDS011;33679;51.218;6.786;2022-08-19T07:13:42;24.17;;;14.40;;
10582;SDS011;33679;51.218;6.786;2022-08-19T07:16:13;29.50;;;17.80;;
10582;SDS011;33679;51.218;6.786;2022-08-19T07:18:48;29.23;;;16.50;;
10582;SDS011;33679;51.218;6.786;2022-08-19T07:21:17;27.33;;;16.20;;
10582;SDS011;33679;51.218;6.786;2022-08-19T07:23:48;26.17;;;15.77;;
10582;SDS011;33679;51.218;6.786;2022-08-19T07:26:22;23.73;;;13.90;;
10582;SDS011;33679;51.218;6.786;2022-08-19T07:28:51;24.37;;;13.10;;
10582;SDS011;33679;51.218;6.786;2022-08-19T07:31:20;20.50;;;12.47;;
10582;SDS011;33679;51.218;6.786;2022-08-19T07:33:49;30.33;;;15.93;;
10582;SDS011;33679;51.218;6.786;2022-08-19T07:36:19;21.53;;;14.70;;
10582;SDS011;33679;51.218;6.786;2022-08-19T07:38:50;21.83;;;14.03;;
10582;SDS011;33679;51.218;6.786;2022-08-19T07:41:21;21.20;;;13.30;;
10582;SDS011;33679;51.218;6.786;2022-08-19T07:43:50;26.70;;;14.17;;
10582;SDS011;33679;51.218;6.786;2022-08-19T07:46:19;19.23;;;10.87;;
10582;SDS011;33679;51.218;6.786;2022-08-19T07:48:48;16.93;;;10.27;;
10582;SDS011;33679;51.218;6.786;2022-08-19T07:51:17;19.07;;;11.77;;
10582;SDS011;33679;51.218;6.786;2022-08-19T07:53:46;17.87;;;10.90;;
10582;SDS011;33679;51.218;6.786;2022-08-19T07:56:16;22.83;;;12.50;;
10582;SDS011;33679;51.218;6.786;2022-08-19T07:58:46;17.40;;;10.10;;
10582;SDS011;33679;51.218;6.786;2022-08-19T08:01:22;19.93;;;11.33;;
10582;SDS011;33679;51.218;6.786;2022-08-19T08:03:54;14.73;;;9.17;;
10582;SDS011;33679;51.218;6.786;2022-08-19T08:06:40;17.57;;;10.93;;
10582;SDS011;33679;51.218;6.786;2022-08-19T08:09:29;14.70;;;8.90;;
10582;SDS011;33679;51.218;6.786;2022-08-19T08:12:01;20.00;;;11.50;;
10582;SDS011;33679;51.218;6.786;2022-08-19T08:14:32;15.60;;;9.90;;
10582;SDS011;33679;51.218;6.786;2022-08-19T08:17:07;17.67;;;10.07;;
10582;SDS011;33679;51.218;6.786;2022-08-19T08:19:36;19.80;;;11.43;;
10582;SDS011;33679;51.218;6.786;2022-08-19T08:22:06;15.00;;;8.87;;
10582;SDS011;33679;51.218;6.786;2022-08-19T08:24:55;20.43;;;11.97;;
10582;SDS011;33679;51.218;6.786;2022-08-19T08:27:24;24.03;;;13.40;;
10582;SDS011;33679;51.218;6.786;2022-08-19T08:29:54;24.43;;;14.43;;
10582;SDS011;33679;51.218;6.786;2022-08-19T08:35:36;25.70;;;14.70;;
10582;SDS011;33679;51.218;6.786;2022-08-19T08:38:07;23.93;;;14.60;;
10582;SDS011;33679;51.218;6.786;2022-08-19T08:40:38;27.33;;;15.30;;
10582;SDS011;33679;51.218;6.786;2022-08-19T08:43:14;40.40;;;19.60;;
10582;SDS011;33679;51.218;6.786;2022-08-19T08:45:50;37.00;;;19.47;;
10582;SDS011;33679;51.218;6.786;2022-08-19T08:48:23;28.47;;;15.20;;
10582;SDS011;33679;51.218;6.786;2022-08-19T08:50:57;27.23;;;16.20;;
10582;SDS011;33679;51.218;6.786;2022-08-19T08:53:29;27.77;;;15.13;;
10582;SDS011;33679;51.218;6.786;2022-08-19T08:55:59;24.17;;;13.53;;
10582;SDS011;33679;51.218;6.786;2022-08-19T08:58:31;28.73;;;15.37;;
10582;SDS011;33679;51.218;6.786;2022-08-19T09:01:09;24.73;;;14.93;;
10582;SDS011;33679;51.218;6.786;2022-08-19T09:03:37;21.30;;;12.63;;
10582;SDS011;33679;51.218;6.786;2022-08-19T09:06:13;25.90;;;15.17;;
10582;SDS011;33679;51.218;6.786;2022-08-19T09:08:59;29.83;;;16.67;;
10582;SDS011;33679;51.218;6.786;2022-08-19T09:11:39;25.57;;;15.10;;
10582;SDS011;33679;51.218;6.786;2022-08-19T09:14:27;21.53;;;13.50;;
10582;SDS011;33679;51.218;6.786;2022-08-19T09:17:00;25.43;;;14.87;;
10582;SDS011;33679;51.218;6.786;2022-08-19T09:19:33;19.10;;;10.90;;
10582;SDS011;33679;51.218;6.786;2022-08-19T09:22:04;22.30;;;12.40;;
10582;SDS011;33679;51.218;6.786;2022-08-19T09:24:33;17.70;;;10.73;;
10582;SDS011;33679;51.218;6.786;2022-08-19T09:27:01;14.97;;;8.90;;
10582;SDS011;33679;51.218;6.786;2022-08-19T09:29:29;17.43;;;10.60;;
10582;SDS011;33679;51.218;6.786;2022-08-19T09:31:56;14.80;;;8.83;;
10582;SDS011;33679;51.218;6.786;2022-08-19T09:34:26;15.37;;;9.73;;
10582;SDS011;33679;51.218;6.786;2022-08-19T09:36:54;22.60;;;12.90;;
10582;SDS011;33679;51.218;6.786;2022-08-19T09:39:27;18.70;;;10.07;;
10582;SDS011;33679;51.218;6.786;2022-08-19T09:41:57;15.53;;;9.60;;
10582;SDS011;33679;51.218;6.786;2022-08-19T09:44:37;25.00;;;11.90;;
10582;SDS011;33679;51.218;6.786;2022-08-19T09:47:06;19.50;;;11.63;;
10582;SDS011;33679;51.218;6.786;2022-08-19T09:49:35;20.13;;;11.77;;
10582;SDS011;33679;51.218;6.786;2022-08-19T09:52:08;18.97;;;11.53;;
10582;SDS011;33679;51.218;6.786;2022-08-19T09:54:39;19.13;;;11.53;;
10582;SDS011;33679;51.218;6.786;2022-08-19T09:57:10;18.17;;;12.50;;
10582;SDS011;33679;51.218;6.786;2022-08-19T09:59:46;21.83;;;12.57;;
10582;SDS011;33679;51.218;6.786;2022-08-19T10:02:14;17.27;;;11.43;;
10582;SDS011;33679;51.218;6.786;2022-08-19T10:04:42;22.57;;;10.57;;
10582;SDS011;33679;51.218;6.786;2022-08-19T10:07:29;20.93;;;11.93;;
10582;SDS011;33679;51.218;6.786;2022-08-19T10:10:00;17.10;;;9.73;;
10582;SDS011;33679;51.218;6.786;2022-08-19T10:12:28;17.27;;;9.70;;
10582;SDS011;33679;51.218;6.786;2022-08-19T10:14:56;17.23;;;10.20;;
10582;SDS011;33679;51.218;6.786;2022-08-19T10:17:33;11.73;;;8.27;;
10582;SDS011;33679;51.218;6.786;2022-08-19T10:20:00;11.00;;;7.87;;
10582;SDS011;33679;51.218;6.786;2022-08-19T10:22:29;17.93;;;10.70;;
10582;SDS011;33679;51.218;6.786;2022-08-19T10:24:56;14.27;;;9.70;;
10582;SDS011;33679;51.218;6.786;2022-08-19T10:27:26;13.67;;;10.17;;
10582;SDS011;33679;51.218;6.786;2022-08-19T10:29:53;18.57;;;9.83;;
10582;SDS011;33679;51.218;6.786;2022-08-19T10:32:20;12.10;;;8.40;;
10582;SDS011;33679;51.218;6.786;2022-08-19T10:34:49;8.80;;;7.13;;
10582;SDS011;33679;51.218;6.786;2022-08-19T10:37:17;15.60;;;9.40;;
10582;SDS011;33679;51.218;6.786;2022-08-19T10:39:45;15.27;;;10.00;;
10582;SDS011;33679;51.218;6.786;2022-08-19T10:42:15;12.63;;;9.20;;
10582;SDS011;33679;51.218;6.786;2022-08-19T10:44:45;14.53;;;8.77;;
10582;SDS011;33679;51.218;6.786;2022-08-19T10:47:13;10.00;;;7.20;;
10582;SDS011;33679;51.218;6.786;2022-08-19T10:49:41;11.03;;;7.20;;
10582;SDS011;33679;51.218;6.786;2022-08-19T10:52:34;9.90;;;6.80;;
10582;SDS011;33679;51.218;6.786;2022-08-19T10:55:54;11.60;;;7.50;;
10582;SDS011;33679;51.218;6.786;2022-08-19T10:58:25;11.47;;;5.87;;
10582;SDS011;33679;51.218;6.786;2022-08-19T11:00:54;8.57;;;6.50;;
10582;SDS011;33679;51.218;6.786;2022-08-19T11:03:22;9.50;;;5.80;;
10582;SDS011;33679;51.218;6.786;2022-08-19T11:05:58;7.33;;;5.30;;
10582;SDS011;33679;51.218;6.786;2022-08-19T11:08:26;12.03;;;7.40;;
10582;SDS011;33679;51.218;6.786;2022-08-19T11:10:57;12.37;;;6.77;;
10582;SDS011;33679;51.218;6.786;2022-08-19T11:13:35;15.60;;;8.90;;
10582;SDS011;33679;51.218;6.786;2022-08-19T11:16:07;11.10;;;7.40;;
10582;SDS011;33679;51.218;6.786;2022-08-19T11:18:40;9.23;;;7.30;;
10582;SDS011;33679;51.218;6.786;2022-08-19T11:21:23;9.43;;;7.40;;
10582;SDS011;33679;51.218;6.786;2022-08-19T11:23:53;12.60;;;7.03;;
10582;SDS011;33679;51.218;6.786;2022-08-19T11:26:33;10.50;;;6.70;;
10582;SDS011;33679;51.218;6.786;2022-08-19T11:29:01;14.43;;;7.30;;
10582;SDS011;33679;51.218;6.786;2022-08-19T11:31:31;16.37;;;9.20;;
10582;SDS011;33679;51.218;6.786;2022-08-19T11:34:01;10.20;;;7.60;;
10582;SDS011;33679;51.218;6.786;2022-08-19T11:36:29;13.30;;;8.00;;
10582;SDS011;33679;51.218;6.786;2022-08-19T11:39:00;20.63;;;7.93;;
10582;SDS011;33679;51.218;6.786;2022-08-19T11:41:48;18.63;;;7.67;;
10582;SDS011;33679;51.218;6.786;2022-08-19T11:44:25;10.10;;;6.20;;
10582;SDS011;33679;51.218;6.786;2022-08-19T11:46:55;13.53;;;6.37;;
10582;SDS011;33679;51.218;6.786;2022-08-19T11:49:23;8.57;;;6.27;;
10582;SDS011;33679;51.218;6.786;2022-08-19T11:51:52;5.93;;;4.90;;
10582;SDS011;33679;51.218;6.786;2022-08-19T11:54:20;7.67;;;5.57;;
10582;SDS011;33679;51.218;6.786;2022-08-19T11:56:47;7.33;;;4.83;;
10582;SDS011;33679;51.218;6.786;2022-08-19T11:59:15;7.77;;;5.30;;
10582;SDS011;33679;51.218;6.786;2022-08-19T12:01:45;10.03;;;6.10;;
10582;SDS011;33679;51.218;6.786;2022-08-19T12:04:13;11.53;;;6.30;;
10582;SDS011;33679;51.218;6.786;2022-08-19T12:06:43;7.20;;;5.17;;
10582;SDS011;33679;51.218;6.786;2022-08-19T12:09:10;7.80;;;5.23;;
10582;SDS011;33679;51.218;6.786;2022-08-19T12:11:39;9.00;;;5.47;;
10582;SDS011;33679;51.218;6.786;2022-08-19T12:14:09;7.13;;;5.43;;
10582;SDS011;33679;51.218;6.786;2022-08-19T12:16:39;7.33;;;4.90;;
10582;SDS011;33679;51.218;6.786;2022-08-19T12:19:08;8.30;;;4.73;;
10582;SDS011;33679;51.218;6.786;2022-08-19T12:21:36;6.23;;;3.97;;
10582;SDS011;33679;51.218;6.786;2022-08-19T12:24:05;5.40;;;4.27;;
10582;SDS011;33679;51.218;6.786;2022-08-19T12:26:33;6.67;;;4.40;;
10582;SDS011;33679;51.218;6.786;2022-08-19T12:29:02;6.73;;;4.60;;
10582;SDS011;33679;51.218;6.786;2022-08-19T12:31:29;8.53;;;5.47;;
10582;SDS011;33679;51.218;6.786;2022-08-19T12:34:00;6.27;;;5.27;;
10582;SDS011;33679;51.218;6.786;2022-08-19T12:36:29;7.00;;;4.70;;
10582;SDS011;33679;51.218;6.786;2022-08-19T12:38:58;5.57;;;4.27;;
10582;SDS011;33679;51.218;6.786;2022-08-19T12:41:26;7.13;;;4.90;;
10582;SDS011;33679;51.218;6.786;2022-08-19T12:43:56;5.87;;;4.43;;
10582;SDS011;33679;51.218;6.786;2022-08-19T12:46:23;6.23;;;4.20;;
10582;SDS011;33679;51.218;6.786;2022-08-19T12:48:51;12.80;;;5.07;;
10582;SDS011;33679;51.218;6.786;2022-08-19T12:51:18;10.40;;;4.60;;
10582;SDS011;33679;51.218;6.786;2022-08-19T12:53:46;11.13;;;4.53;;
10582;SDS011;33679;51.218;6.786;2022-08-19T12:56:16;5.00;;;3.97;;
10582;SDS011;33679;51.218;6.786;2022-08-19T12:58:46;6.87;;;4.40;;
10582;SDS011;33679;51.218;6.786;2022-08-19T13:01:15;5.60;;;3.90;;
10582;SDS011;33679;51.218;6.786;2022-08-19T13:03:44;5.33;;;3.70;;
10582;SDS011;33679;51.218;6.786;2022-08-19T13:06:12;5.30;;;3.53;;
10582;SDS011;33679;51.218;6.786;2022-08-19T13:08:42;7.80;;;3.77;;
10582;SDS011;33679;51.218;6.786;2022-08-19T13:11:10;4.60;;;3.63;;
10582;SDS011;33679;51.218;6.786;2022-08-19T13:13:40;8.03;;;4.47;;
10582;SDS011;33679;51.218;6.786;2022-08-19T13:16:09;5.83;;;4.37;;
10582;SDS011;33679;51.218;6.786;2022-08-19T13:18:38;8.40;;;4.07;;
10582;SDS011;33679;51.218;6.786;2022-08-19T13:21:07;7.70;;;4.27;;
10582;SDS011;33679;51.218;6.786;2022-08-19T13:23:36;6.13;;;4.37;;
10582;SDS011;33679;51.218;6.786;2022-08-19T13:26:05;5.67;;;4.27;;
10582;SDS011;33679;51.218;6.786;2022-08-19T13:28:33;8.00;;;3.57;;
10582;SDS011;33679;51.218;6.786;2022-08-19T13:31:17;4.00;;;3.53;;
10582;SDS011;33679;51.218;6.786;2022-08-19T13:34:11;4.23;;;3.10;;
10582;SDS011;33679;51.218;6.786;2022-08-19T13:36:39;7.00;;;3.20;;
10582;SDS011;33679;51.218;6.786;2022-08-19T13:39:07;7.83;;;3.60;;
10582;SDS011;33679;51.218;6.786;2022-08-19T13:41:34;5.07;;;3.63;;
10582;SDS011;33679;51.218;6.786;2022-08-19T13:44:03;5.13;;;3.47;;
10582;SDS011;33679;51.218;6.786;2022-08-19T13:46:32;4.70;;;3.53;;
10582;SDS011;33679;51.218;6.786;2022-08-19T13:49:00;6.73;;;2.83;;
10582;SDS011;33679;51.218;6.786;2022-08-19T13:51:27;6.70;;;4.20;;
10582;SDS011;33679;51.218;6.786;2022-08-19T13:53:54;6.77;;;4.00;;
10582;SDS011;33679;51.218;6.786;2022-08-19T13:56:24;4.90;;;3.40;;
10582;SDS011;33679;51.218;6.786;2022-08-19T13:58:51;4.10;;;2.87;;
10582;SDS011;33679;51.218;6.786;2022-08-19T14:01:21;3.70;;;3.03;;
10582;SDS011;33679;51.218;6.786;2022-08-19T14:03:51;3.33;;;2.90;;
10582;SDS011;33679;51.218;6.786;2022-08-19T14:06:21;4.93;;;3.60;;
10582;SDS011;33679;51.218;6.786;2022-08-19T14:08:48;4.33;;;2.87;;
10582;SDS011;33679;51.218;6.786;2022-08-19T14:11:15;3.73;;;2.70;;
10582;SDS011;33679;51.218;6.786;2022-08-19T14:13:43;3.63;;;2.70;;
10582;SDS011;33679;51.218;6.786;2022-08-19T14:16:12;4.60;;;2.90;;
10582;SDS011;33679;51.218;6.786;2022-08-19T14:18:42;3.10;;;2.80;;
10582;SDS011;33679;51.218;6.786;2022-08-19T14:21:15;4.10;;;2.63;;
10582;SDS011;33679;51.218;6.786;2022-08-19T14:23:45;5.20;;;3.30;;
10582;SDS011;33679;51.218;6.786;2022-08-19T14:26:18;3.63;;;2.87;;
10582;SDS011;33679;51.218;6.786;2022-08-19T14:28:47;4.10;;;3.00;;
10582;SDS011;33679;51.218;6.786;2022-08-19T14:31:15;2.70;;;2.47;;
10582;SDS011;33679;51.218;6.786;2022-08-19T14:33:45;4.60;;;2.33;;
10582;SDS011;33679;51.218;6.786;2022-08-19T14:36:14;5.27;;;3.13;;
10582;SDS011;33679;51.218;6.786;2022-08-19T14:38:42;3.90;;;3.23;;
10582;SDS011;33679;51.218;6.786;2022-08-19T14:41:12;4.57;;;2.40;;
10582;SDS011;33679;51.218;6.786;2022-08-19T14:43:42;3.53;;;2.20;;
10582;SDS011;33679;51.218;6.786;2022-08-19T14:46:14;4.43;;;3.10;;
10582;SDS011;33679;51.218;6.786;2022-08-19T14:48:45;4.67;;;3.13;;
10582;SDS011;33679;51.218;6.786;2022-08-19T14:51:12;5.53;;;2.70;;
10582;SDS011;33679;51.218;6.786;2022-08-19T14:53:42;5.27;;;2.50;;
10582;SDS011;33679;51.218;6.786;2022-08-19T14:56:10;2.73;;;2.53;;
10582;SDS011;33679;51.218;6.786;2022-08-19T14:58:47;3.70;;;2.90;;
10582;SDS011;33679;51.218;6.786;2022-08-19T15:01:18;2.87;;;2.13;;
10582;SDS011;33679;51.218;6.786;2022-08-19T15:03:47;2.83;;;2.40;;
10582;SDS011;33679;51.218;6.786;2022-08-19T15:06:23;3.53;;;2.57;;
10582;SDS011;33679;51.218;6.786;2022-08-19T15:08:51;5.00;;;2.80;;
10582;SDS011;33679;51.218;6.786;2022-08-19T15:11:19;4.70;;;2.60;;
10582;SDS011;33679;51.218;6.786;2022-08-19T15:13:48;5.10;;;2.53;;
10582;SDS011;33679;51.218;6.786;2022-08-19T15:16:18;3.93;;;2.50;;
10582;SDS011;33679;51.218;6.786;2022-08-19T15:18:48;5.07;;;2.70;;
10582;SDS011;33679;51.218;6.786;2022-08-19T15:21:17;6.93;;;3.57;;
10582;SDS011;33679;51.218;6.786;2022-08-19T15:23:47;3.33;;;2.20;;
10582;SDS011;33679;51.218;6.786;2022-08-19T15:26:16;3.03;;;2.30;;
10582;SDS011;33679;51.218;6.786;2022-08-19T15:28:45;3.40;;;2.50;;
10582;SDS011;33679;51.218;6.786;2022-08-19T15:31:16;5.70;;;3.00;;
10582;SDS011;33679;51.218;6.786;2022-08-19T15:33:47;4.43;;;3.03;;
10582;SDS011;33679;51.218;6.786;2022-08-19T15:36:15;5.50;;;2.73;;
10582;SDS011;33679;51.218;6.786;2022-08-19T15:38:42;4.77;;;3.07;;
10582;SDS011;33679;51.218;6.786;2022-08-19T15:41:16;4.13;;;3.00;;
10582;SDS011;33679;51.218;6.786;2022-08-19T15:43:52;8.53;;;3.50;;
10582;SDS011;33679;51.218;6.786;2022-08-19T15:46:24;3.33;;;2.67;;
10582;SDS011;33679;51.218;6.786;2022-08-19T15:48:55;5.70;;;3.17;;
10582;SDS011;33679;51.218;6.786;2022-08-19T15:51:30;5.60;;;3.20;;
10582;SDS011;33679;51.218;6.786;2022-08-19T15:54:00;3.50;;;2.63;;
10582;SDS011;33679;51.218;6.786;2022-08-19T15:56:29;3.73;;;2.77;;
10582;SDS011;33679;51.218;6.786;2022-08-19T15:59:23;3.80;;;3.00;;
10582;SDS011;33679;51.218;6.786;2022-08-19T16:02:09;11.43;;;3.13;;
10582;SDS011;33679;51.218;6.786;2022-08-19T16:05:06;4.87;;;2.97;;
10582;SDS011;33679;51.218;6.786;2022-08-19T16:07:54;4.13;;;2.60;;
10582;SDS011;33679;51.218;6.786;2022-08-19T16:10:22;3.10;;;2.40;;
10582;SDS011;33679;51.218;6.786;2022-08-19T16:12:49;3.07;;;2.37;;
10582;SDS011;33679;51.218;6.786;2022-08-19T16:15:18;2.43;;;1.93;;
10582;SDS011;33679;51.218;6.786;2022-08-19T16:17:47;7.37;;;2.20;;
10582;SDS011;33679;51.218;6.786;2022-08-19T16:20:14;2.60;;;1.90;;
10582;SDS011;33679;51.218;6.786;2022-08-19T16:22:42;2.93;;;2.30;;
10582;SDS011;33679;51.218;6.786;2022-08-19T16:25:10;3.30;;;2.17;;
10582;SDS011;33679;51.218;6.786;2022-08-19T16:27:41;3.37;;;2.53;;
10582;SDS011;33679;51.218;6.786;2022-08-19T16:30:08;4.97;;;2.80;;
10582;SDS011;33679;51.218;6.786;2022-08-19T16:32:38;4.00;;;2.60;;
10582;SDS011;33679;51.218;6.786;2022-08-19T16:35:08;3.57;;;2.80;;
10582;SDS011;33679;51.218;6.786;2022-08-19T16:37:35;3.53;;;2.33;;
10582;SDS011;33679;51.218;6.786;2022-08-19T16:40:05;3.77;;;2.97;;
10582;SDS011;33679;51.218;6.786;2022-08-19T16:42:34;3.43;;;2.70;;
10582;SDS011;33679;51.218;6.786;2022-08-19T16:45:02;4.00;;;2.70;;